createdAt,value
2023-05-11T00:00:04.250Z,14.6
2023-05-11T00:20:03.515Z,14.1
2023-05-11T00:40:03.792Z,13.8
2023-05-11T01:00:03.096Z,13.6
2023-05-11T01:20:03.739Z,13.2
2023-05-11T01:40:03.219Z,12.8
2023-05-11T02:00:03.464Z,12.5
2023-05-11T02:20:03.083Z,12.2
2023-05-11T02:40:03.656Z,12.1
2023-05-11T03:00:03.027Z,11.7
2023-05-11T03:20:03.412Z,11.5
2023-05-11T03:40:02.992Z,11.4
2023-05-11T04:00:03.211Z,11.4
2023-05-11T04:20:03.697Z,11.5
2023-05-11T04:40:03.036Z,12.1
2023-05-11T05:00:03.274Z,12.8
2023-05-11T05:20:03.581Z,13.8
2023-05-11T05:40:03.854Z,14.7
2023-05-11T06:00:03.286Z,16
2023-05-11T06:20:03.667Z,17.5
2023-05-11T06:40:02.928Z,19.3
2023-05-11T07:00:03.436Z,20.9
2023-05-11T07:20:03.844Z,21.6
2023-05-11T07:40:03.144Z,22.9
2023-05-11T08:00:03.817Z,23.8
2023-05-11T08:20:03.583Z,24.4
2023-05-11T08:40:03.929Z,25.4
2023-05-11T09:00:03.322Z,25.9
2023-05-11T09:20:03.945Z,26.1
2023-05-11T10:00:03.841Z,24.3
2023-05-11T10:20:03.476Z,24.3
2023-05-11T10:40:04.001Z,24.7
2023-05-11T11:00:03.226Z,23.6
2023-05-11T11:20:03.676Z,22.6
2023-05-11T11:40:13.645Z,22.6
2023-05-11T12:00:03.799Z,22.8
2023-05-11T12:20:03.438Z,22.6
2023-05-11T12:40:03.756Z,23.5
2023-05-11T13:00:02.938Z,23.8
2023-05-11T13:20:03.284Z,23.7
2023-05-11T13:40:03.600Z,23.8
2023-05-11T14:00:03.921Z,23.2
2023-05-11T14:20:03.463Z,23.1
2023-05-11T14:40:04.036Z,22.5
2023-05-11T15:00:03.619Z,22.1
2023-05-11T15:20:03.025Z,22
2023-05-11T15:40:03.493Z,21.9
2023-05-11T16:00:03.804Z,21.8
2023-05-11T16:20:03.702Z,21.3
2023-05-11T16:40:03.124Z,21.1
2023-05-11T17:00:03.421Z,21
2023-05-11T17:20:03.839Z,20.8
2023-05-11T17:40:03.427Z,20.4
2023-05-11T18:00:03.830Z,20.1
2023-05-11T18:20:03.125Z,19.8
2023-05-11T18:40:03.550Z,19.5
2023-05-11T19:00:03.948Z,19
2023-05-11T19:20:03.293Z,18.4
2023-05-11T19:40:26.437Z,17.9
2023-05-11T20:00:03.413Z,17.4
2023-05-11T20:20:03.851Z,17.1
2023-05-11T20:40:03.401Z,16.8
2023-05-11T21:00:04.471Z,16.6
2023-05-11T21:20:03.874Z,16.4
2023-05-11T21:40:03.466Z,16.1
2023-05-11T22:00:03.853Z,16.1
2023-05-11T22:20:03.307Z,16.1
2023-05-11T22:40:03.790Z,15.9
2023-05-11T23:00:03.035Z,15.5
2023-05-11T23:20:03.410Z,15.1
2023-05-11T23:40:02.994Z,14.8
